• Join FlightAware (Why Join?)
  • Login
  • US Flag 
01:31AM EDT


 

Airport Tracker/Info


-or-


 

Live Flight TrackerFlight Track Log ✈ JBU917 ✈ 30-Jun-2013 ✈ KBOS - KJFK

Flight Track Log - Related Links

Times and Time Zones

All times are in EDT time to prevent confusion due to time zone crossing. See the JBU917 flight status page for this flight to view local times or setup timezone preferences in your user account.

Time Position Orientation Groundspeed Altitude Reporting Facility
EDT Latitude Longitude Course Direction KTS MPH feet Rate Location/Type
05:58AM 42.3500 -70.9833 160° South 154 177 800  Level KA90
05:59AM 42.3167 -70.9167 124° Southeast 222 255 2,900 2,040 Climbing KA90
06:00AM 42.3333 -70.8167 77° East 284 327 5,400 2,640 Climbing KA90
06:01AM 42.3238 -70.6995 164° South  Level FlightAware Approximate
06:02AM 42.2421 -70.6543 160° South  Level FlightAware Approximate
06:02AM 42.2783 -70.6806 119° Southeast 293 337 9,800  Level Boston Center
06:03AM 42.1584 -70.6125 160° South  Level FlightAware Approximate
06:03AM 42.2006 -70.6436 161° South 276 318 11,800  Level Boston Center
06:04AM 42.1089 -70.6294 173° South 297 342 14,300 2,340 Climbing Boston Center
06:05AM 42.0197 -70.6683 198° South 306 352 16,500 2,100 Climbing Boston Center
06:06AM 41.9286 -70.7100 199° South 328 377 18,600 1,920 Climbing Boston Center
06:07AM 41.8292 -70.7544 198° South 353 406 20,400 1,680 Climbing Boston Center
06:08AM 41.7322 -70.8211 207° Southwest 368 423 22,000 780 Climbing Boston Center
06:09AM 41.6583 -70.8897 215° Southwest 368 423 22,000  Level Boston Center
06:10AM 41.5694 -70.9556 209° Southwest 374 430 22,000  Level Boston Center
06:11AM 41.4978 -71.0489 224° Southwest 369 425 22,000  Level Boston Center
06:12AM 41.4344 -71.1525 231° Southwest 359 413 22,000  Level Boston Center
06:13AM 41.3708 -71.2533 230° Southwest 364 419 22,000  Level Boston Center
06:14AM 41.3094 -71.3594 232° Southwest 364 419 22,000  Level Boston Center
06:15AM 41.2436 -71.4600 229° Southwest 364 419 22,000  Level Boston Center
06:16AM 41.1800 -71.5631 231° Southwest 364 419 22,000  Level Boston Center
06:17AM 41.1433 -71.6958 250° West 343 395 22,000  Level Boston Center
06:18AM 41.1192 -71.8283 256° West 358 412 22,000  Level Boston Center
06:19AM 41.0967 -71.9472 256° West 369 425 22,000 -540 Level Boston Center
06:20AM 41.0744 -72.0767 257° West 369 425 21,000 -1,140 Descending Boston Center
06:21AM 41.0539 -72.1758 255° West 369 425 19,800 -1,740 Descending Boston Center
06:22AM 41.0228 -72.3356 256° West 357 411 17,600 -1,800 Descending Boston Center
06:23AM 40.9978 -72.4594 255° West 357 411 16,200 -1,500 Descending Boston Center
06:24AM 40.9728 -72.5831 255° West 357 411 14,700 -1,380 Descending Boston Center
06:25AM 40.9517 -72.6903 255° West 352 405 13,500 -1,320 Descending Boston Center
06:25AM 40.9333 -72.7667 252° West 295 339 12,500 -900 Descending New York TRACON
06:26AM 40.9000 -72.8500 242° Southwest 269 310 12,000 -720 Descending New York TRACON
06:27AM 40.8667 -72.9333 242° Southwest 268 308 11,100 -1,380 Descending New York TRACON
06:28AM 40.8500 -73.0333 258° West 264 304 9,300 -1,140 Descending New York TRACON
06:29AM 40.8000 -73.1167 232° Southwest 266 306 8,800 -1,020 Descending New York TRACON
06:30AM 40.7833 -73.2000 255° West 264 304 7,300 -1,740 Descending New York TRACON
06:31AM 40.7667 -73.3000 258° West 266 306 5,400 -1,440 Descending New York TRACON
06:32AM 40.7667 -73.4000 270° West 262 302 4,400 -1,200 Descending New York TRACON
06:33AM 40.7500 -73.5000 258° West 260 299 3,100 -900 Descending New York TRACON
06:34AM 40.7500 -73.5833 270° West 218 251 2,700 -600 Descending New York TRACON
06:35AM 40.7500 -73.6500 270° West 211 243 2,000 -540 Descending New York TRACON
06:36AM 40.7167 -73.7000 229° Southwest 147 169 1,700 -540 Descending New York TRACON
06:37AM 40.6833 -73.7167 201° Southwest 139 160 1,000 -720 Descending New York TRACON
06:38AM 40.6500 -73.7500 217° Southwest 141 162 300 -720 Descending New York TRACON
06:40AM 40.6333 -73.7667 North  Level FlightAware Approximate
06:47AM 40.6398 -73.7789 North  Level Estimated
06:48AM 40.6398 -73.7789 North  Level Estimated